sensor_id;sensor_type;location;lat;lon;timestamp;P1;durP1;ratioP1;P2;durP2;ratioP2
69970;SDS011;57301;50.328;8.542;2023-12-14T00:00:46;16.43;;;9.47;;
69970;SDS011;57301;50.328;8.542;2023-12-14T00:03:13;13.50;;;8.98;;
69970;SDS011;57301;50.328;8.542;2023-12-14T00:05:39;13.60;;;8.00;;
69970;SDS011;57301;50.328;8.542;2023-12-14T00:08:06;15.88;;;8.65;;
69970;SDS011;57301;50.328;8.542;2023-12-14T00:10:33;18.50;;;8.55;;
69970;SDS011;57301;50.328;8.542;2023-12-14T00:12:59;21.00;;;10.03;;
69970;SDS011;57301;50.328;8.542;2023-12-14T00:15:26;16.63;;;9.40;;
69970;SDS011;57301;50.328;8.542;2023-12-14T00:17:52;19.25;;;10.68;;
69970;SDS011;57301;50.328;8.542;2023-12-14T00:20:19;16.50;;;9.02;;
69970;SDS011;57301;50.328;8.542;2023-12-14T00:22:45;17.80;;;8.13;;
69970;SDS011;57301;50.328;8.542;2023-12-14T00:25:12;12.97;;;8.10;;
69970;SDS011;57301;50.328;8.542;2023-12-14T00:27:39;15.55;;;8.15;;
69970;SDS011;57301;50.328;8.542;2023-12-14T00:30:05;13.88;;;7.63;;
69970;SDS011;57301;50.328;8.542;2023-12-14T00:32:32;12.35;;;7.35;;
69970;SDS011;57301;50.328;8.542;2023-12-14T00:34:59;12.50;;;7.55;;
69970;SDS011;57301;50.328;8.542;2023-12-14T00:37:26;13.23;;;7.03;;
69970;SDS011;57301;50.328;8.542;2023-12-14T00:39:52;10.73;;;6.32;;
69970;SDS011;57301;50.328;8.542;2023-12-14T00:42:21;16.02;;;8.30;;
69970;SDS011;57301;50.328;8.542;2023-12-14T00:44:47;21.13;;;10.13;;
69970;SDS011;57301;50.328;8.542;2023-12-14T00:47:14;14.82;;;8.82;;
69970;SDS011;57301;50.328;8.542;2023-12-14T00:49:40;14.17;;;8.37;;
69970;SDS011;57301;50.328;8.542;2023-12-14T00:52:07;12.52;;;7.15;;
69970;SDS011;57301;50.328;8.542;2023-12-14T00:54:33;12.52;;;6.88;;
69970;SDS011;57301;50.328;8.542;2023-12-14T00:57:00;9.60;;;5.88;;
69970;SDS011;57301;50.328;8.542;2023-12-14T00:59:26;13.27;;;6.38;;
69970;SDS011;57301;50.328;8.542;2023-12-14T01:01:53;11.30;;;6.30;;
69970;SDS011;57301;50.328;8.542;2023-12-14T01:04:19;10.70;;;6.05;;
69970;SDS011;57301;50.328;8.542;2023-12-14T01:06:46;13.18;;;7.18;;
69970;SDS011;57301;50.328;8.542;2023-12-14T01:09:12;11.80;;;6.18;;
69970;SDS011;57301;50.328;8.542;2023-12-14T01:11:39;10.80;;;6.28;;
69970;SDS011;57301;50.328;8.542;2023-12-14T01:14:05;11.80;;;6.17;;
69970;SDS011;57301;50.328;8.542;2023-12-14T01:16:32;8.60;;;5.70;;
69970;SDS011;57301;50.328;8.542;2023-12-14T01:18:58;9.90;;;6.22;;
69970;SDS011;57301;50.328;8.542;2023-12-14T01:21:25;7.60;;;5.35;;
69970;SDS011;57301;50.328;8.542;2023-12-14T01:23:51;8.45;;;5.43;;
69970;SDS011;57301;50.328;8.542;2023-12-14T01:26:18;8.57;;;5.17;;
69970;SDS011;57301;50.328;8.542;2023-12-14T01:28:45;11.25;;;5.28;;
69970;SDS011;57301;50.328;8.542;2023-12-14T01:31:11;10.77;;;5.60;;
69970;SDS011;57301;50.328;8.542;2023-12-14T01:33:38;10.18;;;5.28;;
69970;SDS011;57301;50.328;8.542;2023-12-14T01:36:04;9.40;;;5.43;;
69970;SDS011;57301;50.328;8.542;2023-12-14T01:38:31;12.27;;;5.27;;
69970;SDS011;57301;50.328;8.542;2023-12-14T01:40:58;11.57;;;5.82;;
69970;SDS011;57301;50.328;8.542;2023-12-14T01:43:25;11.98;;;6.82;;
69970;SDS011;57301;50.328;8.542;2023-12-14T01:45:52;10.05;;;5.65;;
69970;SDS011;57301;50.328;8.542;2023-12-14T01:48:18;10.32;;;5.60;;
69970;SDS011;57301;50.328;8.542;2023-12-14T01:50:45;9.10;;;5.90;;
69970;SDS011;57301;50.328;8.542;2023-12-14T01:53:11;10.02;;;6.40;;
69970;SDS011;57301;50.328;8.542;2023-12-14T01:55:38;10.00;;;5.72;;
69970;SDS011;57301;50.328;8.542;2023-12-14T01:58:05;8.52;;;5.25;;
69970;SDS011;57301;50.328;8.542;2023-12-14T02:00:36;9.82;;;5.25;;
69970;SDS011;57301;50.328;8.542;2023-12-14T02:03:07;9.77;;;5.53;;
69970;SDS011;57301;50.328;8.542;2023-12-14T02:05:33;12.65;;;5.13;;
69970;SDS011;57301;50.328;8.542;2023-12-14T02:08:00;10.90;;;4.88;;
69970;SDS011;57301;50.328;8.542;2023-12-14T02:10:26;9.93;;;4.95;;
69970;SDS011;57301;50.328;8.542;2023-12-14T02:12:53;10.70;;;4.82;;
69970;SDS011;57301;50.328;8.542;2023-12-14T02:15:19;8.43;;;4.80;;
69970;SDS011;57301;50.328;8.542;2023-12-14T02:17:46;9.93;;;4.40;;
69970;SDS011;57301;50.328;8.542;2023-12-14T02:20:13;14.10;;;5.63;;
69970;SDS011;57301;50.328;8.542;2023-12-14T02:22:55;9.20;;;5.40;;
69970;SDS011;57301;50.328;8.542;2023-12-14T02:25:22;10.65;;;5.00;;
69970;SDS011;57301;50.328;8.542;2023-12-14T02:27:50;10.17;;;4.80;;
69970;SDS011;57301;50.328;8.542;2023-12-14T02:30:17;8.07;;;4.53;;
69970;SDS011;57301;50.328;8.542;2023-12-14T02:32:44;7.90;;;4.60;;
69970;SDS011;57301;50.328;8.542;2023-12-14T02:35:11;11.52;;;5.45;;
69970;SDS011;57301;50.328;8.542;2023-12-14T02:37:38;14.32;;;4.63;;
69970;SDS011;57301;50.328;8.542;2023-12-14T02:40:07;10.40;;;4.50;;
69970;SDS011;57301;50.328;8.542;2023-12-14T02:42:34;10.20;;;4.82;;
69970;SDS011;57301;50.328;8.542;2023-12-14T02:45:01;13.95;;;5.35;;
69970;SDS011;57301;50.328;8.542;2023-12-14T02:47:29;9.30;;;5.03;;
69970;SDS011;57301;50.328;8.542;2023-12-14T02:49:56;9.48;;;4.68;;
69970;SDS011;57301;50.328;8.542;2023-12-14T02:52:22;10.17;;;5.07;;
69970;SDS011;57301;50.328;8.542;2023-12-14T02:54:49;10.43;;;5.20;;
69970;SDS011;57301;50.328;8.542;2023-12-14T02:57:15;7.90;;;5.30;;
69970;SDS011;57301;50.328;8.542;2023-12-14T02:59:42;10.13;;;5.10;;
69970;SDS011;57301;50.328;8.542;2023-12-14T03:02:08;9.32;;;4.78;;
69970;SDS011;57301;50.328;8.542;2023-12-14T03:04:38;9.23;;;5.17;;
69970;SDS011;57301;50.328;8.542;2023-12-14T03:07:06;9.07;;;5.32;;
69970;SDS011;57301;50.328;8.542;2023-12-14T03:09:33;9.55;;;4.82;;
69970;SDS011;57301;50.328;8.542;2023-12-14T03:12:00;11.82;;;4.95;;
69970;SDS011;57301;50.328;8.542;2023-12-14T03:14:31;10.85;;;4.80;;
69970;SDS011;57301;50.328;8.542;2023-12-14T03:16:59;9.30;;;5.23;;
69970;SDS011;57301;50.328;8.542;2023-12-14T03:19:26;9.80;;;5.25;;
69970;SDS011;57301;50.328;8.542;2023-12-14T03:21:52;7.85;;;4.50;;
69970;SDS011;57301;50.328;8.542;2023-12-14T03:24:19;10.70;;;5.35;;
69970;SDS011;57301;50.328;8.542;2023-12-14T03:26:46;11.93;;;5.22;;
69970;SDS011;57301;50.328;8.542;2023-12-14T03:29:12;10.50;;;4.80;;
69970;SDS011;57301;50.328;8.542;2023-12-14T03:31:39;10.18;;;4.70;;
69970;SDS011;57301;50.328;8.542;2023-12-14T03:34:06;14.80;;;5.43;;
69970;SDS011;57301;50.328;8.542;2023-12-14T03:36:32;10.18;;;5.55;;
69970;SDS011;57301;50.328;8.542;2023-12-14T03:38:59;15.15;;;6.15;;
69970;SDS011;57301;50.328;8.542;2023-12-14T03:41:25;14.07;;;5.93;;
69970;SDS011;57301;50.328;8.542;2023-12-14T03:43:52;17.85;;;6.60;;
69970;SDS011;57301;50.328;8.542;2023-12-14T03:46:19;16.63;;;6.45;;
69970;SDS011;57301;50.328;8.542;2023-12-14T03:48:45;15.43;;;6.38;;
69970;SDS011;57301;50.328;8.542;2023-12-14T03:51:12;11.13;;;5.78;;
69970;SDS011;57301;50.328;8.542;2023-12-14T03:53:38;16.90;;;7.30;;
69970;SDS011;57301;50.328;8.542;2023-12-14T03:56:06;16.00;;;6.55;;
69970;SDS011;57301;50.328;8.542;2023-12-14T03:58:33;13.18;;;6.15;;
69970;SDS011;57301;50.328;8.542;2023-12-14T04:01:00;16.80;;;6.78;;
69970;SDS011;57301;50.328;8.542;2023-12-14T04:03:26;14.82;;;6.88;;
69970;SDS011;57301;50.328;8.542;2023-12-14T04:05:53;12.20;;;5.60;;
69970;SDS011;57301;50.328;8.542;2023-12-14T04:08:19;13.18;;;5.65;;
69970;SDS011;57301;50.328;8.542;2023-12-14T04:10:46;14.45;;;5.68;;
69970;SDS011;57301;50.328;8.542;2023-12-14T04:13:13;12.45;;;5.95;;
69970;SDS011;57301;50.328;8.542;2023-12-14T04:15:39;13.32;;;6.13;;
69970;SDS011;57301;50.328;8.542;2023-12-14T04:18:09;12.57;;;5.70;;
69970;SDS011;57301;50.328;8.542;2023-12-14T04:20:35;11.95;;;5.60;;
69970;SDS011;57301;50.328;8.542;2023-12-14T04:23:02;17.40;;;5.82;;
69970;SDS011;57301;50.328;8.542;2023-12-14T04:25:28;13.57;;;6.10;;
69970;SDS011;57301;50.328;8.542;2023-12-14T04:27:55;12.65;;;5.15;;
69970;SDS011;57301;50.328;8.542;2023-12-14T04:30:21;12.50;;;5.57;;
69970;SDS011;57301;50.328;8.542;2023-12-14T04:32:48;10.82;;;5.22;;
69970;SDS011;57301;50.328;8.542;2023-12-14T04:35:14;13.18;;;5.20;;
69970;SDS011;57301;50.328;8.542;2023-12-14T04:37:41;16.30;;;5.60;;
69970;SDS011;57301;50.328;8.542;2023-12-14T04:40:08;14.38;;;5.70;;
69970;SDS011;57301;50.328;8.542;2023-12-14T04:42:36;10.40;;;4.90;;
69970;SDS011;57301;50.328;8.542;2023-12-14T04:45:03;11.63;;;5.75;;
69970;SDS011;57301;50.328;8.542;2023-12-14T04:47:30;14.35;;;5.68;;
69970;SDS011;57301;50.328;8.542;2023-12-14T04:49:56;14.43;;;6.10;;
69970;SDS011;57301;50.328;8.542;2023-12-14T04:52:23;15.52;;;5.72;;
69970;SDS011;57301;50.328;8.542;2023-12-14T04:54:50;11.07;;;5.77;;
69970;SDS011;57301;50.328;8.542;2023-12-14T04:57:16;11.82;;;5.47;;
69970;SDS011;57301;50.328;8.542;2023-12-14T04:59:43;10.15;;;4.85;;
69970;SDS011;57301;50.328;8.542;2023-12-14T05:02:09;11.60;;;5.30;;
69970;SDS011;57301;50.328;8.542;2023-12-14T05:04:36;10.93;;;4.93;;
69970;SDS011;57301;50.328;8.542;2023-12-14T05:07:02;15.00;;;5.63;;
69970;SDS011;57301;50.328;8.542;2023-12-14T05:09:29;16.27;;;6.25;;
69970;SDS011;57301;50.328;8.542;2023-12-14T05:11:55;16.15;;;6.20;;
69970;SDS011;57301;50.328;8.542;2023-12-14T05:14:22;16.58;;;7.22;;
69970;SDS011;57301;50.328;8.542;2023-12-14T05:16:49;14.60;;;7.28;;
69970;SDS011;57301;50.328;8.542;2023-12-14T05:19:15;11.90;;;5.97;;
69970;SDS011;57301;50.328;8.542;2023-12-14T05:21:42;19.05;;;9.07;;
69970;SDS011;57301;50.328;8.542;2023-12-14T05:24:09;13.82;;;7.20;;
69970;SDS011;57301;50.328;8.542;2023-12-14T05:26:35;12.40;;;7.00;;
69970;SDS011;57301;50.328;8.542;2023-12-14T05:29:02;19.10;;;6.75;;
69970;SDS011;57301;50.328;8.542;2023-12-14T05:31:28;13.27;;;6.73;;
69970;SDS011;57301;50.328;8.542;2023-12-14T05:33:55;15.57;;;5.43;;
69970;SDS011;57301;50.328;8.542;2023-12-14T05:36:22;14.68;;;6.72;;
69970;SDS011;57301;50.328;8.542;2023-12-14T05:38:48;13.50;;;6.05;;
69970;SDS011;57301;50.328;8.542;2023-12-14T05:41:15;15.18;;;6.13;;
69970;SDS011;57301;50.328;8.542;2023-12-14T05:43:42;15.53;;;6.90;;
69970;SDS011;57301;50.328;8.542;2023-12-14T05:46:08;24.77;;;11.38;;
69970;SDS011;57301;50.328;8.542;2023-12-14T05:48:35;16.52;;;7.63;;
69970;SDS011;57301;50.328;8.542;2023-12-14T05:51:03;15.80;;;7.60;;
69970;SDS011;57301;50.328;8.542;2023-12-14T05:53:30;14.20;;;7.13;;
69970;SDS011;57301;50.328;8.542;2023-12-14T05:55:57;13.13;;;5.80;;
69970;SDS011;57301;50.328;8.542;2023-12-14T05:58:23;15.02;;;6.15;;
69970;SDS011;57301;50.328;8.542;2023-12-14T06:00:52;14.50;;;5.90;;
69970;SDS011;57301;50.328;8.542;2023-12-14T06:03:19;13.38;;;6.32;;
69970;SDS011;57301;50.328;8.542;2023-12-14T06:05:45;12.45;;;5.53;;
69970;SDS011;57301;50.328;8.542;2023-12-14T06:08:12;12.77;;;5.97;;
69970;SDS011;57301;50.328;8.542;2023-12-14T06:10:39;15.13;;;5.68;;
69970;SDS011;57301;50.328;8.542;2023-12-14T06:13:08;23.63;;;9.55;;
69970;SDS011;57301;50.328;8.542;2023-12-14T06:15:35;13.95;;;7.53;;
69970;SDS011;57301;50.328;8.542;2023-12-14T06:18:01;17.35;;;7.18;;
69970;SDS011;57301;50.328;8.542;2023-12-14T06:20:28;17.27;;;8.23;;
69970;SDS011;57301;50.328;8.542;2023-12-14T06:22:54;16.50;;;7.97;;
69970;SDS011;57301;50.328;8.542;2023-12-14T06:25:21;16.98;;;8.25;;
69970;SDS011;57301;50.328;8.542;2023-12-14T06:27:47;21.00;;;9.30;;
69970;SDS011;57301;50.328;8.542;2023-12-14T06:30:14;19.17;;;9.35;;
69970;SDS011;57301;50.328;8.542;2023-12-14T06:32:41;14.83;;;7.63;;
69970;SDS011;57301;50.328;8.542;2023-12-14T06:35:08;21.13;;;9.23;;
69970;SDS011;57301;50.328;8.542;2023-12-14T06:37:35;20.45;;;9.27;;
69970;SDS011;57301;50.328;8.542;2023-12-14T06:40:01;27.25;;;12.70;;
69970;SDS011;57301;50.328;8.542;2023-12-14T06:42:30;23.02;;;11.10;;
69970;SDS011;57301;50.328;8.542;2023-12-14T06:44:58;20.53;;;10.63;;
69970;SDS011;57301;50.328;8.542;2023-12-14T06:47:25;22.25;;;10.40;;
69970;SDS011;57301;50.328;8.542;2023-12-14T06:49:52;31.17;;;14.18;;
69970;SDS011;57301;50.328;8.542;2023-12-14T06:52:18;38.95;;;18.60;;
69970;SDS011;57301;50.328;8.542;2023-12-14T06:54:45;49.45;;;26.02;;
69970;SDS011;57301;50.328;8.542;2023-12-14T06:57:11;42.63;;;20.07;;
69970;SDS011;57301;50.328;8.542;2023-12-14T06:59:38;34.75;;;15.38;;
69970;SDS011;57301;50.328;8.542;2023-12-14T07:02:05;43.05;;;20.27;;
69970;SDS011;57301;50.328;8.542;2023-12-14T07:04:32;34.53;;;16.77;;
69970;SDS011;57301;50.328;8.542;2023-12-14T07:06:59;27.63;;;13.30;;
69970;SDS011;57301;50.328;8.542;2023-12-14T07:09:26;28.40;;;13.53;;
69970;SDS011;57301;50.328;8.542;2023-12-14T07:11:52;33.95;;;14.50;;
69970;SDS011;57301;50.328;8.542;2023-12-14T07:14:19;30.25;;;14.07;;
69970;SDS011;57301;50.328;8.542;2023-12-14T07:16:49;28.92;;;13.77;;
69970;SDS011;57301;50.328;8.542;2023-12-14T07:19:16;30.27;;;14.23;;
69970;SDS011;57301;50.328;8.542;2023-12-14T07:21:42;26.27;;;13.17;;
69970;SDS011;57301;50.328;8.542;2023-12-14T07:24:09;24.90;;;12.77;;
69970;SDS011;57301;50.328;8.542;2023-12-14T07:26:35;27.60;;;12.77;;
69970;SDS011;57301;50.328;8.542;2023-12-14T07:29:02;25.58;;;12.90;;
69970;SDS011;57301;50.328;8.542;2023-12-14T07:31:28;27.42;;;12.73;;
69970;SDS011;57301;50.328;8.542;2023-12-14T07:33:55;28.50;;;13.77;;
69970;SDS011;57301;50.328;8.542;2023-12-14T07:36:22;27.98;;;13.18;;
69970;SDS011;57301;50.328;8.542;2023-12-14T07:38:49;23.40;;;11.95;;
69970;SDS011;57301;50.328;8.542;2023-12-14T07:41:20;24.85;;;11.75;;
69970;SDS011;57301;50.328;8.542;2023-12-14T07:43:49;27.40;;;12.70;;
69970;SDS011;57301;50.328;8.542;2023-12-14T07:46:15;25.97;;;11.80;;
69970;SDS011;57301;50.328;8.542;2023-12-14T07:48:42;24.08;;;12.55;;
69970;SDS011;57301;50.328;8.542;2023-12-14T07:51:09;29.27;;;12.82;;
69970;SDS011;57301;50.328;8.542;2023-12-14T07:53:35;24.35;;;11.77;;
69970;SDS011;57301;50.328;8.542;2023-12-14T07:56:03;26.60;;;13.02;;
69970;SDS011;57301;50.328;8.542;2023-12-14T07:58:30;25.97;;;13.23;;
69970;SDS011;57301;50.328;8.542;2023-12-14T08:00:56;25.25;;;11.90;;
69970;SDS011;57301;50.328;8.542;2023-12-14T08:03:23;23.80;;;12.27;;
69970;SDS011;57301;50.328;8.542;2023-12-14T08:05:50;53.97;;;22.10;;
69970;SDS011;57301;50.328;8.542;2023-12-14T08:08:16;47.20;;;20.65;;
69970;SDS011;57301;50.328;8.542;2023-12-14T08:10:43;36.37;;;16.83;;
69970;SDS011;57301;50.328;8.542;2023-12-14T08:13:10;30.17;;;14.45;;
69970;SDS011;57301;50.328;8.542;2023-12-14T08:15:36;24.83;;;11.85;;
69970;SDS011;57301;50.328;8.542;2023-12-14T08:18:03;25.02;;;11.85;;
69970;SDS011;57301;50.328;8.542;2023-12-14T08:20:30;24.63;;;11.02;;
69970;SDS011;57301;50.328;8.542;2023-12-14T08:22:57;25.17;;;12.50;;
69970;SDS011;57301;50.328;8.542;2023-12-14T08:25:24;73.53;;;32.72;;
69970;SDS011;57301;50.328;8.542;2023-12-14T08:27:52;27.85;;;13.07;;
69970;SDS011;57301;50.328;8.542;2023-12-14T08:30:18;24.27;;;11.57;;
69970;SDS011;57301;50.328;8.542;2023-12-14T08:32:45;21.65;;;10.13;;
69970;SDS011;57301;50.328;8.542;2023-12-14T08:35:12;23.53;;;11.30;;
69970;SDS011;57301;50.328;8.542;2023-12-14T08:37:38;23.27;;;11.32;;
69970;SDS011;57301;50.328;8.542;2023-12-14T08:40:05;22.05;;;10.57;;
69970;SDS011;57301;50.328;8.542;2023-12-14T08:42:32;24.15;;;11.07;;
69970;SDS011;57301;50.328;8.542;2023-12-14T08:44:59;24.88;;;11.52;;
69970;SDS011;57301;50.328;8.542;2023-12-14T08:47:26;24.23;;;11.00;;
69970;SDS011;57301;50.328;8.542;2023-12-14T08:49:52;23.95;;;12.00;;
69970;SDS011;57301;50.328;8.542;2023-12-14T08:52:19;21.45;;;10.75;;
69970;SDS011;57301;50.328;8.542;2023-12-14T08:54:46;20.23;;;9.32;;
69970;SDS011;57301;50.328;8.542;2023-12-14T08:57:12;20.90;;;9.90;;
69970;SDS011;57301;50.328;8.542;2023-12-14T08:59:39;26.90;;;10.43;;
69970;SDS011;57301;50.328;8.542;2023-12-14T09:02:09;19.80;;;9.75;;
69970;SDS011;57301;50.328;8.542;2023-12-14T09:04:36;20.83;;;9.50;;
69970;SDS011;57301;50.328;8.542;2023-12-14T09:07:03;18.27;;;8.68;;
69970;SDS011;57301;50.328;8.542;2023-12-14T09:09:30;17.90;;;8.00;;
69970;SDS011;57301;50.328;8.542;2023-12-14T09:12:01;17.17;;;8.47;;
69970;SDS011;57301;50.328;8.542;2023-12-14T09:14:32;17.10;;;7.72;;
69970;SDS011;57301;50.328;8.542;2023-12-14T09:16:58;15.25;;;7.95;;
69970;SDS011;57301;50.328;8.542;2023-12-14T09:19:25;20.58;;;8.35;;
69970;SDS011;57301;50.328;8.542;2023-12-14T09:21:52;95.75;;;44.83;;
69970;SDS011;57301;50.328;8.542;2023-12-14T09:24:19;12.63;;;7.27;;
69970;SDS011;57301;50.328;8.542;2023-12-14T09:26:45;14.10;;;7.47;;
69970;SDS011;57301;50.328;8.542;2023-12-14T09:29:12;15.73;;;7.10;;
69970;SDS011;57301;50.328;8.542;2023-12-14T09:31:41;15.07;;;7.53;;
69970;SDS011;57301;50.328;8.542;2023-12-14T09:34:12;17.15;;;7.40;;
69970;SDS011;57301;50.328;8.542;2023-12-14T09:36:39;12.10;;;7.03;;
69970;SDS011;57301;50.328;8.542;2023-12-14T09:39:06;12.32;;;6.45;;
69970;SDS011;57301;50.328;8.542;2023-12-14T09:41:37;16.25;;;7.00;;
69970;SDS011;57301;50.328;8.542;2023-12-14T09:44:05;14.25;;;6.85;;
69970;SDS011;57301;50.328;8.542;2023-12-14T09:46:33;14.68;;;6.47;;
69970;SDS011;57301;50.328;8.542;2023-12-14T09:49:03;14.13;;;7.30;;
69970;SDS011;57301;50.328;8.542;2023-12-14T09:51:34;14.77;;;7.47;;
69970;SDS011;57301;50.328;8.542;2023-12-14T09:54:03;12.88;;;7.05;;
69970;SDS011;57301;50.328;8.542;2023-12-14T09:56:30;11.05;;;5.70;;
69970;SDS011;57301;50.328;8.542;2023-12-14T09:58:57;11.90;;;5.88;;
69970;SDS011;57301;50.328;8.542;2023-12-14T10:01:25;10.17;;;5.90;;
69970;SDS011;57301;50.328;8.542;2023-12-14T10:04:06;11.38;;;6.07;;
69970;SDS011;57301;50.328;8.542;2023-12-14T10:06:35;10.07;;;5.40;;
69970;SDS011;57301;50.328;8.542;2023-12-14T10:09:02;11.35;;;5.32;;
69970;SDS011;57301;50.328;8.542;2023-12-14T10:11:45;11.90;;;5.32;;
69970;SDS011;57301;50.328;8.542;2023-12-14T10:14:21;9.17;;;5.10;;
69970;SDS011;57301;50.328;8.542;2023-12-14T10:16:52;8.30;;;5.18;;
69970;SDS011;57301;50.328;8.542;2023-12-14T10:19:28;11.93;;;6.05;;
69970;SDS011;57301;50.328;8.542;2023-12-14T10:21:55;8.40;;;4.82;;
69970;SDS011;57301;50.328;8.542;2023-12-14T10:24:22;9.70;;;5.40;;
69970;SDS011;57301;50.328;8.542;2023-12-14T10:26:49;10.03;;;4.60;;
69970;SDS011;57301;50.328;8.542;2023-12-14T10:29:17;8.90;;;4.90;;
69970;SDS011;57301;50.328;8.542;2023-12-14T10:31:44;9.25;;;4.93;;
69970;SDS011;57301;50.328;8.542;2023-12-14T10:34:11;7.15;;;4.50;;
69970;SDS011;57301;50.328;8.542;2023-12-14T10:36:39;9.02;;;4.72;;
69970;SDS011;57301;50.328;8.542;2023-12-14T10:39:09;7.13;;;4.03;;
69970;SDS011;57301;50.328;8.542;2023-12-14T10:41:41;7.53;;;4.47;;
69970;SDS011;57301;50.328;8.542;2023-12-14T10:44:08;7.57;;;4.50;;
69970;SDS011;57301;50.328;8.542;2023-12-14T10:46:56;9.05;;;4.45;;
69970;SDS011;57301;50.328;8.542;2023-12-14T10:49:25;7.50;;;4.10;;
69970;SDS011;57301;50.328;8.542;2023-12-14T10:51:52;8.10;;;4.57;;
69970;SDS011;57301;50.328;8.542;2023-12-14T10:54:21;8.20;;;3.85;;
69970;SDS011;57301;50.328;8.542;2023-12-14T10:56:54;6.43;;;4.15;;
69970;SDS011;57301;50.328;8.542;2023-12-14T10:59:24;6.88;;;4.10;;
69970;SDS011;57301;50.328;8.542;2023-12-14T11:01:52;5.93;;;3.88;;
69970;SDS011;57301;50.328;8.542;2023-12-14T11:04:24;7.93;;;4.23;;
69970;SDS011;57301;50.328;8.542;2023-12-14T11:06:53;5.63;;;4.13;;
69970;SDS011;57301;50.328;8.542;2023-12-14T11:09:23;6.95;;;3.90;;
69970;SDS011;57301;50.328;8.542;2023-12-14T11:14:24;4.57;;;2.70;;
69970;SDS011;57301;50.328;8.542;2023-12-14T11:16:55;5.23;;;2.80;;
69970;SDS011;57301;50.328;8.542;2023-12-14T11:22:09;5.03;;;2.97;;
69970;SDS011;57301;50.328;8.542;2023-12-14T11:24:42;4.55;;;2.95;;
69970;SDS011;57301;50.328;8.542;2023-12-14T11:27:11;7.18;;;3.30;;
69970;SDS011;57301;50.328;8.542;2023-12-14T11:29:38;6.37;;;3.30;;
69970;SDS011;57301;50.328;8.542;2023-12-14T11:32:07;5.45;;;3.10;;
69970;SDS011;57301;50.328;8.542;2023-12-14T11:34:34;5.55;;;3.10;;
69970;SDS011;57301;50.328;8.542;2023-12-14T11:37:01;4.93;;;3.40;;
69970;SDS011;57301;50.328;8.542;2023-12-14T11:39:31;5.63;;;3.10;;
69970;SDS011;57301;50.328;8.542;2023-12-14T11:42:01;5.57;;;3.23;;
69970;SDS011;57301;50.328;8.542;2023-12-14T11:44:29;7.18;;;4.25;;
69970;SDS011;57301;50.328;8.542;2023-12-14T11:46:57;5.57;;;3.15;;
69970;SDS011;57301;50.328;8.542;2023-12-14T11:49:24;4.93;;;3.13;;
69970;SDS011;57301;50.328;8.542;2023-12-14T11:51:55;14.05;;;7.32;;
69970;SDS011;57301;50.328;8.542;2023-12-14T11:54:28;8.17;;;4.33;;
69970;SDS011;57301;50.328;8.542;2023-12-14T11:56:54;5.78;;;3.20;;
69970;SDS011;57301;50.328;8.542;2023-12-14T11:59:21;5.40;;;3.08;;
69970;SDS011;57301;50.328;8.542;2023-12-14T12:01:55;5.60;;;3.08;;
69970;SDS011;57301;50.328;8.542;2023-12-14T12:04:25;4.65;;;2.72;;
69970;SDS011;57301;50.328;8.542;2023-12-14T12:07:26;4.90;;;2.70;;
69970;SDS011;57301;50.328;8.542;2023-12-14T12:09:45;5.00;;;2.78;;
69970;SDS011;57301;50.328;8.542;2023-12-14T12:12:12;7.82;;;4.50;;
69970;SDS011;57301;50.328;8.542;2023-12-14T12:14:39;11.63;;;6.05;;
69970;SDS011;57301;50.328;8.542;2023-12-14T12:17:06;7.68;;;4.40;;
69970;SDS011;57301;50.328;8.542;2023-12-14T12:19:34;12.37;;;5.90;;
69970;SDS011;57301;50.328;8.542;2023-12-14T12:22:01;6.20;;;3.33;;
69970;SDS011;57301;50.328;8.542;2023-12-14T12:24:28;5.25;;;3.10;;
69970;SDS011;57301;50.328;8.542;2023-12-14T12:26:59;6.15;;;3.50;;
69970;SDS011;57301;50.328;8.542;2023-12-14T12:29:26;5.93;;;3.17;;
69970;SDS011;57301;50.328;8.542;2023-12-14T12:31:52;5.50;;;3.30;;
69970;SDS011;57301;50.328;8.542;2023-12-14T12:34:19;6.13;;;3.53;;
69970;SDS011;57301;50.328;8.542;2023-12-14T12:36:45;5.40;;;3.40;;
69970;SDS011;57301;50.328;8.542;2023-12-14T12:39:13;9.52;;;4.28;;
69970;SDS011;57301;50.328;8.542;2023-12-14T12:41:40;6.93;;;3.50;;
69970;SDS011;57301;50.328;8.542;2023-12-14T12:44:06;7.37;;;3.63;;
69970;SDS011;57301;50.328;8.542;2023-12-14T12:46:34;7.53;;;4.03;;
69970;SDS011;57301;50.328;8.542;2023-12-14T12:49:01;6.60;;;3.10;;
69970;SDS011;57301;50.328;8.542;2023-12-14T12:51:29;7.00;;;3.50;;
69970;SDS011;57301;50.328;8.542;2023-12-14T12:53:57;7.97;;;4.40;;
69970;SDS011;57301;50.328;8.542;2023-12-14T12:56:38;8.27;;;4.20;;
69970;SDS011;57301;50.328;8.542;2023-12-14T12:59:04;5.68;;;3.05;;
69970;SDS011;57301;50.328;8.542;2023-12-14T13:01:35;6.05;;;3.50;;
69970;SDS011;57301;50.328;8.542;2023-12-14T13:04:01;6.53;;;3.65;;
69970;SDS011;57301;50.328;8.542;2023-12-14T13:06:30;6.20;;;3.63;;
69970;SDS011;57301;50.328;8.542;2023-12-14T13:08:57;6.00;;;3.73;;
69970;SDS011;57301;50.328;8.542;2023-12-14T13:11:24;4.82;;;2.78;;
69970;SDS011;57301;50.328;8.542;2023-12-14T13:13:51;4.97;;;2.80;;
69970;SDS011;57301;50.328;8.542;2023-12-14T13:16:18;4.40;;;2.70;;
69970;SDS011;57301;50.328;8.542;2023-12-14T13:18:44;5.57;;;2.72;;
69970;SDS011;57301;50.328;8.542;2023-12-14T13:21:12;5.60;;;2.90;;
69970;SDS011;57301;50.328;8.542;2023-12-14T13:23:39;4.80;;;2.92;;
69970;SDS011;57301;50.328;8.542;2023-12-14T13:26:06;6.30;;;3.08;;
69970;SDS011;57301;50.328;8.542;2023-12-14T13:28:34;5.72;;;3.28;;
69970;SDS011;57301;50.328;8.542;2023-12-14T13:31:00;5.32;;;2.90;;
69970;SDS011;57301;50.328;8.542;2023-12-14T13:33:27;8.43;;;4.17;;
69970;SDS011;57301;50.328;8.542;2023-12-14T13:35:54;6.38;;;3.45;;
69970;SDS011;57301;50.328;8.542;2023-12-14T13:38:21;5.60;;;2.80;;
69970;SDS011;57301;50.328;8.542;2023-12-14T13:40:48;5.55;;;3.22;;
69970;SDS011;57301;50.328;8.542;2023-12-14T13:43:14;5.07;;;2.90;;
69970;SDS011;57301;50.328;8.542;2023-12-14T13:45:41;5.67;;;3.23;;
69970;SDS011;57301;50.328;8.542;2023-12-14T13:48:08;4.70;;;2.80;;
69970;SDS011;57301;50.328;8.542;2023-12-14T13:50:35;5.28;;;3.38;;
69970;SDS011;57301;50.328;8.542;2023-12-14T13:53:06;5.90;;;3.17;;
69970;SDS011;57301;50.328;8.542;2023-12-14T13:55:33;5.93;;;3.08;;
69970;SDS011;57301;50.328;8.542;2023-12-14T13:58:00;5.17;;;2.77;;
69970;SDS011;57301;50.328;8.542;2023-12-14T14:00:27;10.15;;;3.40;;
69970;SDS011;57301;50.328;8.542;2023-12-14T14:02:53;37.80;;;18.85;;
69970;SDS011;57301;50.328;8.542;2023-12-14T14:05:22;7.93;;;3.97;;
69970;SDS011;57301;50.328;8.542;2023-12-14T14:07:49;7.80;;;4.00;;
69970;SDS011;57301;50.328;8.542;2023-12-14T14:10:15;7.43;;;3.67;;
69970;SDS011;57301;50.328;8.542;2023-12-14T14:12:42;6.47;;;3.58;;
69970;SDS011;57301;50.328;8.542;2023-12-14T14:15:09;7.70;;;4.47;;
69970;SDS011;57301;50.328;8.542;2023-12-14T14:17:36;7.65;;;3.80;;
69970;SDS011;57301;50.328;8.542;2023-12-14T14:20:03;7.80;;;4.10;;
69970;SDS011;57301;50.328;8.542;2023-12-14T14:22:31;9.00;;;4.70;;
69970;SDS011;57301;50.328;8.542;2023-12-14T14:24:57;8.05;;;4.57;;
69970;SDS011;57301;50.328;8.542;2023-12-14T14:27:24;8.20;;;4.85;;
69970;SDS011;57301;50.328;8.542;2023-12-14T14:29:51;10.63;;;5.90;;
69970;SDS011;57301;50.328;8.542;2023-12-14T14:32:20;10.70;;;6.05;;
69970;SDS011;57301;50.328;8.542;2023-12-14T14:34:47;9.83;;;5.33;;
69970;SDS011;57301;50.328;8.542;2023-12-14T14:37:13;11.30;;;6.00;;
69970;SDS011;57301;50.328;8.542;2023-12-14T14:39:40;11.75;;;5.20;;
69970;SDS011;57301;50.328;8.542;2023-12-14T14:42:09;11.38;;;5.63;;